sensor_id;sensor_type;location;lat;lon;timestamp;P1;durP1;ratioP1;P2;durP2;ratioP2
53881;SDS011;39794;55.782;37.452;2023-04-16T00:00:03;8.80;;;3.60;;
53881;SDS011;39794;55.782;37.452;2023-04-16T00:02:39;7.35;;;3.50;;
53881;SDS011;39794;55.782;37.452;2023-04-16T00:05:08;9.45;;;4.10;;
53881;SDS011;39794;55.782;37.452;2023-04-16T00:07:36;7.50;;;3.88;;
53881;SDS011;39794;55.782;37.452;2023-04-16T00:10:06;7.22;;;4.07;;
53881;SDS011;39794;55.782;37.452;2023-04-16T00:12:37;12.18;;;4.22;;
53881;SDS011;39794;55.782;37.452;2023-04-16T00:15:06;8.52;;;3.40;;
53881;SDS011;39794;55.782;37.452;2023-04-16T00:17:35;7.95;;;4.10;;
53881;SDS011;39794;55.782;37.452;2023-04-16T00:20:04;6.18;;;3.65;;
53881;SDS011;39794;55.782;37.452;2023-04-16T00:22:34;9.10;;;3.60;;
53881;SDS011;39794;55.782;37.452;2023-04-16T00:25:03;7.05;;;3.80;;
53881;SDS011;39794;55.782;37.452;2023-04-16T00:27:32;9.07;;;4.03;;
53881;SDS011;39794;55.782;37.452;2023-04-16T00:30:02;9.40;;;3.90;;
53881;SDS011;39794;55.782;37.452;2023-04-16T00:32:32;8.75;;;4.38;;
53881;SDS011;39794;55.782;37.452;2023-04-16T00:35:02;8.18;;;4.55;;
53881;SDS011;39794;55.782;37.452;2023-04-16T00:37:31;9.45;;;3.80;;
53881;SDS011;39794;55.782;37.452;2023-04-16T00:39:59;10.20;;;3.50;;
53881;SDS011;39794;55.782;37.452;2023-04-16T00:42:29;6.18;;;3.75;;
53881;SDS011;39794;55.782;37.452;2023-04-16T00:45:00;8.27;;;3.92;;
53881;SDS011;39794;55.782;37.452;2023-04-16T00:47:31;9.98;;;4.38;;
53881;SDS011;39794;55.782;37.452;2023-04-16T00:50:01;6.70;;;3.42;;
53881;SDS011;39794;55.782;37.452;2023-04-16T00:52:30;10.93;;;4.13;;
53881;SDS011;39794;55.782;37.452;2023-04-16T00:55:02;10.30;;;3.85;;
53881;SDS011;39794;55.782;37.452;2023-04-16T00:57:31;8.13;;;3.97;;
53881;SDS011;39794;55.782;37.452;2023-04-16T01:00:00;10.05;;;4.13;;
53881;SDS011;39794;55.782;37.452;2023-04-16T01:02:31;5.78;;;3.50;;
53881;SDS011;39794;55.782;37.452;2023-04-16T01:05:03;8.93;;;4.10;;
53881;SDS011;39794;55.782;37.452;2023-04-16T01:07:32;8.48;;;4.18;;
53881;SDS011;39794;55.782;37.452;2023-04-16T01:10:02;6.75;;;3.47;;
53881;SDS011;39794;55.782;37.452;2023-04-16T01:12:31;11.43;;;3.72;;
53881;SDS011;39794;55.782;37.452;2023-04-16T01:14:59;5.95;;;3.70;;
53881;SDS011;39794;55.782;37.452;2023-04-16T01:17:29;5.97;;;3.88;;
53881;SDS011;39794;55.782;37.452;2023-04-16T01:19:59;8.38;;;3.90;;
53881;SDS011;39794;55.782;37.452;2023-04-16T01:22:30;8.70;;;3.85;;
53881;SDS011;39794;55.782;37.452;2023-04-16T01:24:59;8.70;;;4.13;;
53881;SDS011;39794;55.782;37.452;2023-04-16T01:27:29;8.32;;;3.67;;
53881;SDS011;39794;55.782;37.452;2023-04-16T01:29:59;7.50;;;4.00;;
53881;SDS011;39794;55.782;37.452;2023-04-16T01:32:42;7.57;;;3.60;;
53881;SDS011;39794;55.782;37.452;2023-04-16T01:35:10;7.32;;;3.38;;
53881;SDS011;39794;55.782;37.452;2023-04-16T01:37:40;10.60;;;3.22;;
53881;SDS011;39794;55.782;37.452;2023-04-16T01:40:09;7.20;;;3.55;;
53881;SDS011;39794;55.782;37.452;2023-04-16T01:42:38;10.95;;;4.10;;
53881;SDS011;39794;55.782;37.452;2023-04-16T01:45:08;8.57;;;3.53;;
53881;SDS011;39794;55.782;37.452;2023-04-16T01:47:39;4.97;;;3.15;;
53881;SDS011;39794;55.782;37.452;2023-04-16T01:50:09;8.48;;;3.40;;
53881;SDS011;39794;55.782;37.452;2023-04-16T01:52:39;6.10;;;3.55;;
53881;SDS011;39794;55.782;37.452;2023-04-16T01:55:08;8.95;;;3.70;;
53881;SDS011;39794;55.782;37.452;2023-04-16T01:57:38;7.15;;;3.53;;
53881;SDS011;39794;55.782;37.452;2023-04-16T02:00:07;7.00;;;3.55;;
53881;SDS011;39794;55.782;37.452;2023-04-16T02:02:44;5.95;;;3.63;;
53881;SDS011;39794;55.782;37.452;2023-04-16T02:05:23;5.70;;;3.38;;
53881;SDS011;39794;55.782;37.452;2023-04-16T02:07:53;5.88;;;3.22;;
53881;SDS011;39794;55.782;37.452;2023-04-16T02:10:22;7.10;;;3.60;;
53881;SDS011;39794;55.782;37.452;2023-04-16T02:12:51;4.75;;;2.83;;
53881;SDS011;39794;55.782;37.452;2023-04-16T02:15:19;9.98;;;3.92;;
53881;SDS011;39794;55.782;37.452;2023-04-16T02:17:50;9.02;;;3.95;;
53881;SDS011;39794;55.782;37.452;2023-04-16T02:20:23;11.65;;;4.15;;
53881;SDS011;39794;55.782;37.452;2023-04-16T02:22:58;11.38;;;3.92;;
53881;SDS011;39794;55.782;37.452;2023-04-16T02:25:27;11.02;;;3.58;;
53881;SDS011;39794;55.782;37.452;2023-04-16T02:27:56;10.90;;;3.78;;
53881;SDS011;39794;55.782;37.452;2023-04-16T02:30:31;5.53;;;3.42;;
53881;SDS011;39794;55.782;37.452;2023-04-16T02:33:01;5.65;;;3.50;;
53881;SDS011;39794;55.782;37.452;2023-04-16T02:35:31;8.63;;;3.80;;
53881;SDS011;39794;55.782;37.452;2023-04-16T02:38:02;7.13;;;3.72;;
53881;SDS011;39794;55.782;37.452;2023-04-16T02:40:34;7.38;;;3.78;;
53881;SDS011;39794;55.782;37.452;2023-04-16T02:43:03;6.53;;;3.88;;
53881;SDS011;39794;55.782;37.452;2023-04-16T02:45:31;9.75;;;3.83;;
53881;SDS011;39794;55.782;37.452;2023-04-16T02:48:00;10.00;;;4.20;;
53881;SDS011;39794;55.782;37.452;2023-04-16T02:50:47;5.75;;;3.33;;
53881;SDS011;39794;55.782;37.452;2023-04-16T02:53:18;8.52;;;4.20;;
53881;SDS011;39794;55.782;37.452;2023-04-16T02:55:49;7.10;;;3.90;;
53881;SDS011;39794;55.782;37.452;2023-04-16T02:58:19;10.68;;;4.68;;
53881;SDS011;39794;55.782;37.452;2023-04-16T03:00:50;6.90;;;3.70;;
53881;SDS011;39794;55.782;37.452;2023-04-16T03:03:19;8.82;;;4.22;;
53881;SDS011;39794;55.782;37.452;2023-04-16T03:05:48;7.63;;;3.80;;
53881;SDS011;39794;55.782;37.452;2023-04-16T03:08:18;9.05;;;4.57;;
53881;SDS011;39794;55.782;37.452;2023-04-16T03:10:47;8.63;;;4.53;;
53881;SDS011;39794;55.782;37.452;2023-04-16T03:13:16;8.13;;;4.22;;
53881;SDS011;39794;55.782;37.452;2023-04-16T03:15:47;6.75;;;3.15;;
53881;SDS011;39794;55.782;37.452;2023-04-16T03:18:16;9.18;;;4.28;;
53881;SDS011;39794;55.782;37.452;2023-04-16T03:20:45;10.85;;;4.38;;
53881;SDS011;39794;55.782;37.452;2023-04-16T03:23:13;6.03;;;3.50;;
53881;SDS011;39794;55.782;37.452;2023-04-16T03:25:45;13.40;;;3.80;;
53881;SDS011;39794;55.782;37.452;2023-04-16T03:28:17;10.45;;;3.97;;
53881;SDS011;39794;55.782;37.452;2023-04-16T03:30:49;6.32;;;3.80;;
53881;SDS011;39794;55.782;37.452;2023-04-16T03:33:19;7.97;;;4.13;;
53881;SDS011;39794;55.782;37.452;2023-04-16T03:35:56;9.52;;;4.18;;
53881;SDS011;39794;55.782;37.452;2023-04-16T03:38:28;7.10;;;3.10;;
53881;SDS011;39794;55.782;37.452;2023-04-16T03:41:00;7.47;;;3.65;;
53881;SDS011;39794;55.782;37.452;2023-04-16T03:43:32;10.05;;;3.72;;
53881;SDS011;39794;55.782;37.452;2023-04-16T03:46:00;11.48;;;3.90;;
53881;SDS011;39794;55.782;37.452;2023-04-16T03:48:29;6.55;;;3.72;;
53881;SDS011;39794;55.782;37.452;2023-04-16T03:50:59;8.57;;;3.50;;
53881;SDS011;39794;55.782;37.452;2023-04-16T03:53:32;10.23;;;3.58;;
53881;SDS011;39794;55.782;37.452;2023-04-16T03:56:03;8.25;;;4.05;;
53881;SDS011;39794;55.782;37.452;2023-04-16T03:58:33;8.60;;;3.92;;
53881;SDS011;39794;55.782;37.452;2023-04-16T04:01:01;7.88;;;3.50;;
53881;SDS011;39794;55.782;37.452;2023-04-16T04:03:31;10.80;;;3.80;;
53881;SDS011;39794;55.782;37.452;2023-04-16T04:06:00;11.30;;;4.00;;
53881;SDS011;39794;55.782;37.452;2023-04-16T04:08:34;9.25;;;4.32;;
53881;SDS011;39794;55.782;37.452;2023-04-16T04:11:05;6.68;;;3.55;;
53881;SDS011;39794;55.782;37.452;2023-04-16T04:13:34;9.32;;;3.55;;
53881;SDS011;39794;55.782;37.452;2023-04-16T04:16:03;11.27;;;3.95;;
53881;SDS011;39794;55.782;37.452;2023-04-16T04:18:32;10.43;;;3.78;;
53881;SDS011;39794;55.782;37.452;2023-04-16T04:21:04;6.90;;;3.85;;
53881;SDS011;39794;55.782;37.452;2023-04-16T04:23:33;11.45;;;3.97;;
53881;SDS011;39794;55.782;37.452;2023-04-16T04:26:06;7.85;;;4.28;;
53881;SDS011;39794;55.782;37.452;2023-04-16T04:28:36;13.02;;;4.47;;
53881;SDS011;39794;55.782;37.452;2023-04-16T04:31:04;10.85;;;4.90;;
53881;SDS011;39794;55.782;37.452;2023-04-16T04:33:36;6.68;;;3.60;;
53881;SDS011;39794;55.782;37.452;2023-04-16T04:36:06;8.40;;;4.03;;
53881;SDS011;39794;55.782;37.452;2023-04-16T04:38:35;8.98;;;3.65;;
53881;SDS011;39794;55.782;37.452;2023-04-16T04:41:04;7.43;;;3.83;;
53881;SDS011;39794;55.782;37.452;2023-04-16T04:43:37;8.07;;;3.83;;
53881;SDS011;39794;55.782;37.452;2023-04-16T04:46:08;10.02;;;4.35;;
53881;SDS011;39794;55.782;37.452;2023-04-16T04:48:36;9.60;;;3.90;;
53881;SDS011;39794;55.782;37.452;2023-04-16T04:51:05;12.40;;;4.60;;
53881;SDS011;39794;55.782;37.452;2023-04-16T04:53:33;10.35;;;4.40;;
53881;SDS011;39794;55.782;37.452;2023-04-16T04:56:04;8.20;;;3.90;;
53881;SDS011;39794;55.782;37.452;2023-04-16T04:58:40;13.02;;;4.13;;
53881;SDS011;39794;55.782;37.452;2023-04-16T05:01:09;6.45;;;3.90;;
53881;SDS011;39794;55.782;37.452;2023-04-16T05:03:38;13.00;;;4.20;;
53881;SDS011;39794;55.782;37.452;2023-04-16T05:06:07;6.57;;;2.92;;
53881;SDS011;39794;55.782;37.452;2023-04-16T05:08:35;9.32;;;3.90;;
53881;SDS011;39794;55.782;37.452;2023-04-16T05:11:04;7.03;;;4.13;;
53881;SDS011;39794;55.782;37.452;2023-04-16T05:13:34;8.02;;;3.85;;
53881;SDS011;39794;55.782;37.452;2023-04-16T05:16:05;14.27;;;4.72;;
53881;SDS011;39794;55.782;37.452;2023-04-16T05:18:34;11.13;;;3.90;;
53881;SDS011;39794;55.782;37.452;2023-04-16T05:21:05;10.13;;;4.53;;
53881;SDS011;39794;55.782;37.452;2023-04-16T05:23:34;14.40;;;5.22;;
53881;SDS011;39794;55.782;37.452;2023-04-16T05:26:04;13.82;;;4.85;;
53881;SDS011;39794;55.782;37.452;2023-04-16T05:28:35;8.82;;;4.28;;
53881;SDS011;39794;55.782;37.452;2023-04-16T05:31:06;9.15;;;3.55;;
53881;SDS011;39794;55.782;37.452;2023-04-16T05:33:52;16.92;;;4.85;;
53881;SDS011;39794;55.782;37.452;2023-04-16T05:36:21;13.10;;;4.60;;
53881;SDS011;39794;55.782;37.452;2023-04-16T05:38:50;5.95;;;4.15;;
53881;SDS011;39794;55.782;37.452;2023-04-16T05:41:23;10.38;;;4.03;;
53881;SDS011;39794;55.782;37.452;2023-04-16T05:43:53;11.25;;;5.00;;
53881;SDS011;39794;55.782;37.452;2023-04-16T05:46:23;8.30;;;4.03;;
53881;SDS011;39794;55.782;37.452;2023-04-16T05:48:53;9.95;;;3.70;;
53881;SDS011;39794;55.782;37.452;2023-04-16T05:51:22;10.27;;;4.60;;
53881;SDS011;39794;55.782;37.452;2023-04-16T05:53:53;8.85;;;4.30;;
53881;SDS011;39794;55.782;37.452;2023-04-16T05:56:22;11.18;;;4.35;;
53881;SDS011;39794;55.782;37.452;2023-04-16T05:58:51;11.43;;;4.03;;
53881;SDS011;39794;55.782;37.452;2023-04-16T06:01:20;10.85;;;4.32;;
53881;SDS011;39794;55.782;37.452;2023-04-16T06:03:50;8.50;;;4.28;;
53881;SDS011;39794;55.782;37.452;2023-04-16T06:06:19;10.98;;;4.47;;
53881;SDS011;39794;55.782;37.452;2023-04-16T06:08:50;9.20;;;4.03;;
53881;SDS011;39794;55.782;37.452;2023-04-16T06:11:19;13.00;;;4.10;;
53881;SDS011;39794;55.782;37.452;2023-04-16T06:13:48;6.95;;;3.85;;
53881;SDS011;39794;55.782;37.452;2023-04-16T06:16:17;5.22;;;3.33;;
53881;SDS011;39794;55.782;37.452;2023-04-16T06:18:45;10.30;;;3.92;;
53881;SDS011;39794;55.782;37.452;2023-04-16T06:21:16;11.02;;;3.97;;
53881;SDS011;39794;55.782;37.452;2023-04-16T06:23:45;9.65;;;4.30;;
53881;SDS011;39794;55.782;37.452;2023-04-16T06:26:14;13.77;;;4.63;;
53881;SDS011;39794;55.782;37.452;2023-04-16T06:28:42;10.05;;;4.93;;
53881;SDS011;39794;55.782;37.452;2023-04-16T06:31:11;9.23;;;3.95;;
53881;SDS011;39794;55.782;37.452;2023-04-16T06:33:40;11.88;;;4.47;;
53881;SDS011;39794;55.782;37.452;2023-04-16T06:36:08;11.63;;;4.00;;
53881;SDS011;39794;55.782;37.452;2023-04-16T06:38:39;11.95;;;4.88;;
53881;SDS011;39794;55.782;37.452;2023-04-16T06:41:07;7.00;;;3.83;;
53881;SDS011;39794;55.782;37.452;2023-04-16T06:43:36;10.45;;;4.10;;
53881;SDS011;39794;55.782;37.452;2023-04-16T06:46:04;7.05;;;3.78;;
53881;SDS011;39794;55.782;37.452;2023-04-16T06:48:33;6.57;;;3.22;;
53881;SDS011;39794;55.782;37.452;2023-04-16T06:51:02;7.32;;;3.67;;
53881;SDS011;39794;55.782;37.452;2023-04-16T06:53:31;10.52;;;3.40;;
53881;SDS011;39794;55.782;37.452;2023-04-16T06:56:01;13.45;;;4.35;;
53881;SDS011;39794;55.782;37.452;2023-04-16T06:58:29;12.20;;;3.95;;
53881;SDS011;39794;55.782;37.452;2023-04-16T07:00:58;8.93;;;4.22;;
53881;SDS011;39794;55.782;37.452;2023-04-16T07:03:28;6.35;;;3.70;;
53881;SDS011;39794;55.782;37.452;2023-04-16T07:05:57;7.93;;;3.67;;
53881;SDS011;39794;55.782;37.452;2023-04-16T07:08:29;10.57;;;4.60;;
53881;SDS011;39794;55.782;37.452;2023-04-16T07:10:58;10.75;;;4.18;;
53881;SDS011;39794;55.782;37.452;2023-04-16T07:13:28;8.23;;;3.60;;
53881;SDS011;39794;55.782;37.452;2023-04-16T07:15:57;7.55;;;3.38;;
53881;SDS011;39794;55.782;37.452;2023-04-16T07:18:29;11.73;;;3.85;;
53881;SDS011;39794;55.782;37.452;2023-04-16T07:20:57;10.02;;;3.70;;
53881;SDS011;39794;55.782;37.452;2023-04-16T07:23:26;9.25;;;3.53;;
53881;SDS011;39794;55.782;37.452;2023-04-16T07:25:55;11.27;;;3.63;;
53881;SDS011;39794;55.782;37.452;2023-04-16T07:28:24;9.45;;;4.15;;
53881;SDS011;39794;55.782;37.452;2023-04-16T07:30:54;12.13;;;3.47;;
53881;SDS011;39794;55.782;37.452;2023-04-16T07:33:23;8.88;;;4.00;;
53881;SDS011;39794;55.782;37.452;2023-04-16T07:35:52;7.30;;;3.88;;
53881;SDS011;39794;55.782;37.452;2023-04-16T07:38:20;7.72;;;4.45;;
53881;SDS011;39794;55.782;37.452;2023-04-16T07:40:52;9.13;;;3.90;;
53881;SDS011;39794;55.782;37.452;2023-04-16T07:43:20;10.55;;;3.42;;
53881;SDS011;39794;55.782;37.452;2023-04-16T07:45:49;10.40;;;4.47;;
53881;SDS011;39794;55.782;37.452;2023-04-16T07:48:20;13.43;;;4.13;;
53881;SDS011;39794;55.782;37.452;2023-04-16T07:50:51;6.68;;;3.22;;
53881;SDS011;39794;55.782;37.452;2023-04-16T07:53:20;9.50;;;3.30;;
53881;SDS011;39794;55.782;37.452;2023-04-16T07:55:48;10.23;;;3.50;;
53881;SDS011;39794;55.782;37.452;2023-04-16T07:58:20;8.07;;;3.55;;
53881;SDS011;39794;55.782;37.452;2023-04-16T08:00:49;5.55;;;2.75;;
53881;SDS011;39794;55.782;37.452;2023-04-16T08:03:19;5.82;;;2.85;;
53881;SDS011;39794;55.782;37.452;2023-04-16T08:05:49;11.60;;;3.55;;
53881;SDS011;39794;55.782;37.452;2023-04-16T08:08:18;6.80;;;3.08;;
53881;SDS011;39794;55.782;37.452;2023-04-16T08:10:47;7.95;;;3.38;;
53881;SDS011;39794;55.782;37.452;2023-04-16T08:15:50;7.28;;;3.28;;
53881;SDS011;39794;55.782;37.452;2023-04-16T08:18:20;9.85;;;3.33;;
53881;SDS011;39794;55.782;37.452;2023-04-16T08:20:49;8.65;;;3.05;;
53881;SDS011;39794;55.782;37.452;2023-04-16T08:23:18;10.38;;;3.88;;
53881;SDS011;39794;55.782;37.452;2023-04-16T08:25:46;7.07;;;3.00;;
53881;SDS011;39794;55.782;37.452;2023-04-16T08:28:22;10.25;;;3.17;;
53881;SDS011;39794;55.782;37.452;2023-04-16T08:30:52;11.90;;;3.30;;
53881;SDS011;39794;55.782;37.452;2023-04-16T08:33:22;6.35;;;3.53;;
53881;SDS011;39794;55.782;37.452;2023-04-16T08:35:50;10.77;;;3.00;;
53881;SDS011;39794;55.782;37.452;2023-04-16T08:38:21;13.38;;;3.25;;
53881;SDS011;39794;55.782;37.452;2023-04-16T08:40:50;9.68;;;2.90;;
53881;SDS011;39794;55.782;37.452;2023-04-16T08:43:21;6.53;;;3.17;;
53881;SDS011;39794;55.782;37.452;2023-04-16T08:45:51;8.07;;;3.05;;
53881;SDS011;39794;55.782;37.452;2023-04-16T08:48:24;8.43;;;2.78;;
53881;SDS011;39794;55.782;37.452;2023-04-16T08:50:53;4.22;;;2.85;;
53881;SDS011;39794;55.782;37.452;2023-04-16T08:53:21;6.53;;;2.38;;
53881;SDS011;39794;55.782;37.452;2023-04-16T08:55:58;6.57;;;2.97;;
53881;SDS011;39794;55.782;37.452;2023-04-16T08:58:32;7.50;;;3.20;;
53881;SDS011;39794;55.782;37.452;2023-04-16T09:01:02;9.82;;;3.28;;
53881;SDS011;39794;55.782;37.452;2023-04-16T09:03:34;7.68;;;2.60;;
53881;SDS011;39794;55.782;37.452;2023-04-16T09:06:03;4.95;;;2.30;;
53881;SDS011;39794;55.782;37.452;2023-04-16T09:08:33;4.53;;;2.42;;
53881;SDS011;39794;55.782;37.452;2023-04-16T09:11:04;15.02;;;3.00;;
53881;SDS011;39794;55.782;37.452;2023-04-16T09:13:33;6.13;;;2.80;;
53881;SDS011;39794;55.782;37.452;2023-04-16T09:16:02;5.53;;;2.67;;
53881;SDS011;39794;55.782;37.452;2023-04-16T09:18:31;5.22;;;2.67;;
53881;SDS011;39794;55.782;37.452;2023-04-16T09:21:01;8.45;;;2.80;;
53881;SDS011;39794;55.782;37.452;2023-04-16T09:23:30;8.88;;;2.95;;
53881;SDS011;39794;55.782;37.452;2023-04-16T09:25:59;8.90;;;3.30;;
53881;SDS011;39794;55.782;37.452;2023-04-16T09:28:41;5.97;;;2.85;;
53881;SDS011;39794;55.782;37.452;2023-04-16T09:31:12;5.10;;;2.10;;
53881;SDS011;39794;55.782;37.452;2023-04-16T09:33:41;3.83;;;2.20;;
53881;SDS011;39794;55.782;37.452;2023-04-16T09:36:12;5.03;;;2.60;;
53881;SDS011;39794;55.782;37.452;2023-04-16T09:38:46;5.68;;;2.63;;
53881;SDS011;39794;55.782;37.452;2023-04-16T09:41:16;6.43;;;3.60;;
53881;SDS011;39794;55.782;37.452;2023-04-16T09:43:48;11.68;;;3.13;;
53881;SDS011;39794;55.782;37.452;2023-04-16T09:46:22;10.00;;;2.83;;
53881;SDS011;39794;55.782;37.452;2023-04-16T09:48:51;6.22;;;3.03;;
53881;SDS011;39794;55.782;37.452;2023-04-16T09:51:21;6.70;;;2.50;;
53881;SDS011;39794;55.782;37.452;2023-04-16T09:53:51;3.97;;;2.40;;
53881;SDS011;39794;55.782;37.452;2023-04-16T09:56:22;6.25;;;3.05;;
53881;SDS011;39794;55.782;37.452;2023-04-16T09:58:55;8.20;;;2.63;;
53881;SDS011;39794;55.782;37.452;2023-04-16T10:01:25;4.93;;;3.13;;
53881;SDS011;39794;55.782;37.452;2023-04-16T10:03:53;7.70;;;2.97;;
53881;SDS011;39794;55.782;37.452;2023-04-16T10:06:24;8.13;;;3.00;;
53881;SDS011;39794;55.782;37.452;2023-04-16T10:08:53;7.93;;;3.10;;
53881;SDS011;39794;55.782;37.452;2023-04-16T10:11:23;7.60;;;2.83;;
53881;SDS011;39794;55.782;37.452;2023-04-16T10:13:54;7.05;;;2.90;;
53881;SDS011;39794;55.782;37.452;2023-04-16T10:16:22;8.27;;;3.70;;
53881;SDS011;39794;55.782;37.452;2023-04-16T10:18:51;7.25;;;3.40;;
53881;SDS011;39794;55.782;37.452;2023-04-16T10:21:20;5.95;;;3.20;;
53881;SDS011;39794;55.782;37.452;2023-04-16T10:23:51;6.10;;;2.83;;
53881;SDS011;39794;55.782;37.452;2023-04-16T10:26:20;6.18;;;3.25;;
53881;SDS011;39794;55.782;37.452;2023-04-16T10:28:48;5.47;;;2.80;;
53881;SDS011;39794;55.782;37.452;2023-04-16T10:31:17;4.65;;;2.92;;
53881;SDS011;39794;55.782;37.452;2023-04-16T10:33:46;12.73;;;3.30;;
53881;SDS011;39794;55.782;37.452;2023-04-16T10:36:16;8.52;;;3.08;;
53881;SDS011;39794;55.782;37.452;2023-04-16T10:38:52;4.95;;;2.92;;
53881;SDS011;39794;55.782;37.452;2023-04-16T10:41:24;5.43;;;2.80;;
53881;SDS011;39794;55.782;37.452;2023-04-16T10:44:03;4.53;;;2.65;;
53881;SDS011;39794;55.782;37.452;2023-04-16T10:46:36;5.93;;;2.72;;
53881;SDS011;39794;55.782;37.452;2023-04-16T10:49:12;6.03;;;3.00;;
53881;SDS011;39794;55.782;37.452;2023-04-16T10:51:40;8.45;;;2.97;;
53881;SDS011;39794;55.782;37.452;2023-04-16T10:54:21;11.48;;;2.97;;
53881;SDS011;39794;55.782;37.452;2023-04-16T10:56:52;4.38;;;2.50;;
53881;SDS011;39794;55.782;37.452;2023-04-16T10:59:23;5.05;;;3.00;;
53881;SDS011;39794;55.782;37.452;2023-04-16T11:01:53;7.32;;;2.85;;
53881;SDS011;39794;55.782;37.452;2023-04-16T11:07:15;6.47;;;2.70;;
53881;SDS011;39794;55.782;37.452;2023-04-16T11:09:51;4.55;;;2.60;;
53881;SDS011;39794;55.782;37.452;2023-04-16T11:12:22;7.88;;;2.72;;
53881;SDS011;39794;55.782;37.452;2023-04-16T11:14:54;8.52;;;2.65;;
53881;SDS011;39794;55.782;37.452;2023-04-16T11:17:27;5.35;;;2.90;;
53881;SDS011;39794;55.782;37.452;2023-04-16T11:19:58;8.48;;;3.38;;
53881;SDS011;39794;55.782;37.452;2023-04-16T11:22:30;6.30;;;2.90;;
53881;SDS011;39794;55.782;37.452;2023-04-16T11:25:04;9.75;;;2.97;;
53881;SDS011;39794;55.782;37.452;2023-04-16T11:27:33;6.30;;;2.88;;
53881;SDS011;39794;55.782;37.452;2023-04-16T11:30:02;5.82;;;2.38;;
53881;SDS011;39794;55.782;37.452;2023-04-16T11:32:35;7.15;;;3.30;;
53881;SDS011;39794;55.782;37.452;2023-04-16T11:35:11;4.07;;;3.03;;
53881;SDS011;39794;55.782;37.452;2023-04-16T11:37:41;6.13;;;2.83;;
53881;SDS011;39794;55.782;37.452;2023-04-16T11:40:12;4.15;;;2.13;;
53881;SDS011;39794;55.782;37.452;2023-04-16T11:42:41;6.57;;;2.60;;
53881;SDS011;39794;55.782;37.452;2023-04-16T11:45:10;4.68;;;2.67;;
53881;SDS011;39794;55.782;37.452;2023-04-16T11:47:43;6.30;;;2.60;;
53881;SDS011;39794;55.782;37.452;2023-04-16T11:50:16;4.68;;;2.92;;
53881;SDS011;39794;55.782;37.452;2023-04-16T11:52:46;5.82;;;2.85;;
53881;SDS011;39794;55.782;37.452;2023-04-16T11:55:17;8.52;;;2.67;;
53881;SDS011;39794;55.782;37.452;2023-04-16T11:57:46;9.00;;;2.90;;
53881;SDS011;39794;55.782;37.452;2023-04-16T12:00:19;4.97;;;2.70;;
53881;SDS011;39794;55.782;37.452;2023-04-16T12:02:51;6.20;;;3.33;;
53881;SDS011;39794;55.782;37.452;2023-04-16T12:05:28;9.55;;;2.85;;
53881;SDS011;39794;55.782;37.452;2023-04-16T12:07:57;6.50;;;2.60;;
53881;SDS011;39794;55.782;37.452;2023-04-16T12:10:29;4.72;;;2.55;;
53881;SDS011;39794;55.782;37.452;2023-04-16T12:13:10;7.07;;;2.87;;
53881;SDS011;39794;55.782;37.452;2023-04-16T12:15:43;5.13;;;2.45;;
53881;SDS011;39794;55.782;37.452;2023-04-16T12:18:13;8.90;;;2.30;;
53881;SDS011;39794;55.782;37.452;2023-04-16T12:20:43;5.82;;;2.78;;
53881;SDS011;39794;55.782;37.452;2023-04-16T12:23:21;4.60;;;2.40;;
53881;SDS011;39794;55.782;37.452;2023-04-16T12:25:53;6.40;;;2.33;;
53881;SDS011;39794;55.782;37.452;2023-04-16T12:28:26;10.30;;;2.72;;
53881;SDS011;39794;55.782;37.452;2023-04-16T12:30:59;4.90;;;2.87;;
53881;SDS011;39794;55.782;37.452;2023-04-16T12:33:28;4.85;;;2.67;;
53881;SDS011;39794;55.782;37.452;2023-04-16T12:35:57;6.13;;;2.95;;
53881;SDS011;39794;55.782;37.452;2023-04-16T12:38:26;8.02;;;2.88;;
53881;SDS011;39794;55.782;37.452;2023-04-16T12:40:56;5.10;;;2.47;;
53881;SDS011;39794;55.782;37.452;2023-04-16T12:43:28;5.28;;;2.70;;
53881;SDS011;39794;55.782;37.452;2023-04-16T12:45:56;3.85;;;2.60;;
53881;SDS011;39794;55.782;37.452;2023-04-16T12:48:27;7.07;;;2.85;;
53881;SDS011;39794;55.782;37.452;2023-04-16T12:50:55;5.78;;;2.80;;
53881;SDS011;39794;55.782;37.452;2023-04-16T12:53:24;6.43;;;2.83;;
53881;SDS011;39794;55.782;37.452;2023-04-16T12:55:53;6.65;;;2.67;;
53881;SDS011;39794;55.782;37.452;2023-04-16T12:58:24;4.22;;;2.67;;
53881;SDS011;39794;55.782;37.452;2023-04-16T13:00:53;4.18;;;2.60;;
53881;SDS011;39794;55.782;37.452;2023-04-16T13:03:21;3.97;;;2.90;;
53881;SDS011;39794;55.782;37.452;2023-04-16T13:05:50;5.45;;;2.70;;
53881;SDS011;39794;55.782;37.452;2023-04-16T13:08:19;4.75;;;3.08;;
53881;SDS011;39794;55.782;37.452;2023-04-16T13:10:48;5.10;;;3.20;;
53881;SDS011;39794;55.782;37.452;2023-04-16T13:13:16;7.00;;;2.80;;
53881;SDS011;39794;55.782;37.452;2023-04-16T13:15:46;4.93;;;2.80;;
53881;SDS011;39794;55.782;37.452;2023-04-16T13:18:14;6.70;;;2.80;;
53881;SDS011;39794;55.782;37.452;2023-04-16T13:20:44;8.55;;;5.72;;
53881;SDS011;39794;55.782;37.452;2023-04-16T13:23:16;10.60;;;6.90;;
53881;SDS011;39794;55.782;37.452;2023-04-16T13:25:44;13.55;;;7.38;;
53881;SDS011;39794;55.782;37.452;2023-04-16T13:28:16;11.65;;;6.50;;
53881;SDS011;39794;55.782;37.452;2023-04-16T13:30:46;10.07;;;4.20;;
53881;SDS011;39794;55.782;37.452;2023-04-16T13:33:15;8.90;;;3.63;;
53881;SDS011;39794;55.782;37.452;2023-04-16T13:35:43;8.25;;;3.33;;
53881;SDS011;39794;55.782;37.452;2023-04-16T13:38:12;7.25;;;2.92;;
53881;SDS011;39794;55.782;37.452;2023-04-16T13:40:40;7.93;;;3.08;;
53881;SDS011;39794;55.782;37.452;2023-04-16T13:43:09;6.35;;;2.80;;
53881;SDS011;39794;55.782;37.452;2023-04-16T13:45:42;6.97;;;2.95;;
53881;SDS011;39794;55.782;37.452;2023-04-16T13:48:12;5.72;;;3.75;;
53881;SDS011;39794;55.782;37.452;2023-04-16T13:50:40;7.40;;;3.20;;
53881;SDS011;39794;55.782;37.452;2023-04-16T13:53:14;6.18;;;3.05;;
53881;SDS011;39794;55.782;37.452;2023-04-16T13:55:43;7.30;;;3.00;;
53881;SDS011;39794;55.782;37.452;2023-04-16T13:58:11;5.75;;;3.17;;
53881;SDS011;39794;55.782;37.452;2023-04-16T14:00:40;6.95;;;3.40;;
53881;SDS011;39794;55.782;37.452;2023-04-16T14:03:13;7.57;;;3.25;;
53881;SDS011;39794;55.782;37.452;2023-04-16T14:05:42;7.53;;;3.17;;
53881;SDS011;39794;55.782;37.452;2023-04-16T14:08:10;7.25;;;3.42;;
53881;SDS011;39794;55.782;37.452;2023-04-16T14:10:43;5.55;;;2.97;;
53881;SDS011;39794;55.782;37.452;2023-04-16T14:13:12;6.90;;;3.35;;
53881;SDS011;39794;55.782;37.452;2023-04-16T14:15:40;4.60;;;3.03;;
53881;SDS011;39794;55.782;37.452;2023-04-16T14:18:09;9.93;;;4.03;;
53881;SDS011;39794;55.782;37.452;2023-04-16T14:20:39;6.38;;;3.30;;
53881;SDS011;39794;55.782;37.452;2023-04-16T14:23:07;6.25;;;2.75;;
53881;SDS011;39794;55.782;37.452;2023-04-16T14:25:38;7.70;;;2.90;;
53881;SDS011;39794;55.782;37.452;2023-04-16T14:28:06;3.47;;;2.30;;
53881;SDS011;39794;55.782;37.452;2023-04-16T14:30:40;7.70;;;3.30;;
53881;SDS011;39794;55.782;37.452;2023-04-16T14:33:09;7.82;;;3.22;;
53881;SDS011;39794;55.782;37.452;2023-04-16T14:35:39;7.90;;;3.10;;
53881;SDS011;39794;55.782;37.452;2023-04-16T14:38:09;6.85;;;3.30;;
53881;SDS011;39794;55.782;37.452;2023-04-16T14:40:38;6.05;;;2.80;;
53881;SDS011;39794;55.782;37.452;2023-04-16T14:43:07;6.53;;;3.10;;
53881;SDS011;39794;55.782;37.452;2023-04-16T14:45:35;9.60;;;3.67;;
53881;SDS011;39794;55.782;37.452;2023-04-16T14:48:04;8.75;;;3.30;;
53881;SDS011;39794;55.782;37.452;2023-04-16T14:50:33;7.60;;;3.03;;
53881;SDS011;39794;55.782;37.452;2023-04-16T14:53:05;6.93;;;3.10;;